Time;durP1;ratioP1;P1;durP2;ratioP2;P2;SDS_P1;SDS_P2;PMS_P1;PMS_P2;Temp;Humidity;BMP_temperature;BMP_pressure;BME280_temperature;BME280_humidity;BME280_pressure;Samples;Min_cycle;Max_cycle;Signal;HPM_P1;HPM_P2
2022/04/11 00:00:50;;;;;;;5.78;2.17;;;;;;;1.99;86.88;102014.25;5012305;28;20033;-73
2022/04/11 00:03:15;;;;;;;3.80;2.03;;;;;;;1.95;86.92;102010.06;5019168;28;20049;-72
2022/04/11 00:05:41;;;;;;;5.65;2.72;;;;;;;1.96;87.11;102018.72;5017100;28;20065;-71
2022/04/11 00:08:06;;;;;;;4.70;2.20;;;;;;;1.82;86.68;101982.88;5017149;28;20049;-71
2022/04/11 00:10:32;;;;;;;4.47;2.10;;;;;;;1.83;86.44;101984.59;5017187;28;20491;-71
2022/04/11 00:13:05;;;;;;;4.15;1.88;;;;;;;1.93;86.34;102014.50;5014374;28;20032;-71
2022/04/11 00:15:33;;;;;;;5.30;1.70;;;;;;;1.91;86.67;102016.31;5016824;28;20033;-71
2022/04/11 00:18:03;;;;;;;3.05;1.85;;;;;;;1.72;86.18;101991.97;5018346;28;20022;-72
2022/04/11 00:20:29;;;;;;;4.20;2.15;;;;;;;1.76;87.38;102009.16;5013204;28;20417;-71
2022/04/11 00:22:54;;;;;;;6.22;2.72;;;;;;;1.73;86.95;102004.94;5017395;28;20028;-71
2022/04/11 00:25:20;;;;;;;3.30;1.80;;;;;;;1.70;86.75;101991.19;5017590;28;20441;-71
2022/04/11 00:27:45;;;;;;;3.78;2.22;;;;;;;1.71;87.03;102009.38;5017659;28;20028;-72
2022/04/11 00:30:11;;;;;;;2.85;2.20;;;;;;;1.58;87.54;101990.81;5017226;28;20026;-72
2022/04/11 00:32:41;;;;;;;4.50;2.05;;;;;;;1.67;87.48;102009.56;5017383;28;20033;-71
2022/04/11 00:35:08;;;;;;;3.00;1.77;;;;;;;1.45;87.53;101971.41;5020358;28;20054;-72
2022/04/11 00:37:34;;;;;;;3.50;1.83;;;;;;;1.61;88.05;101993.31;5016438;28;20760;-72
2022/04/11 00:40:00;;;;;;;2.92;2.58;;;;;;;1.56;88.01;102000.44;5015371;28;20026;-72
2022/04/11 00:42:28;;;;;;;3.35;1.90;;;;;;;1.40;88.10;101958.59;5014239;28;20398;-72
2022/04/11 00:44:53;;;;;;;4.15;1.92;;;;;;;1.58;88.04;101989.97;5017850;28;20025;-71
2022/04/11 00:47:19;;;;;;;4.97;2.10;;;;;;;1.50;87.76;101977.25;4999757;28;20063;-71
2022/04/11 00:49:46;;;;;;;2.67;1.80;;;;;;;1.53;87.81;101979.75;4999061;28;20026;-72
2022/04/11 00:52:12;;;;;;;5.05;2.08;;;;;;;1.51;87.54;101981.56;5012673;28;20021;-72
2022/04/11 00:54:39;;;;;;;4.05;2.92;;;;;;;1.48;87.03;101979.09;5017187;28;20029;-72
2022/04/11 00:57:05;;;;;;;2.92;2.25;;;;;;;1.43;87.99;101978.44;5016477;28;20379;-72
2022/04/11 00:59:31;;;;;;;4.20;2.88;;;;;;;1.45;87.64;101979.22;5000273;28;20136;-72
2022/04/11 01:01:56;;;;;;;3.08;2.00;;;;;;;1.36;88.09;101962.22;5018575;28;20129;-72
2022/04/11 01:04:26;;;;;;;4.00;2.20;;;;;;;1.31;88.21;101968.56;5016637;28;20029;-72
2022/04/11 01:06:55;;;;;;;3.40;2.50;;;;;;;1.39;87.52;101975.13;5001324;28;20034;-72
2022/04/11 01:09:23;;;;;;;7.35;2.53;;;;;;;1.40;87.69;101978.56;5019221;28;20386;-73
2022/04/11 01:11:49;;;;;;;4.07;2.55;;;;;;;1.35;87.84;101983.97;5017823;28;20501;-72
2022/04/11 01:14:14;;;;;;;2.70;1.92;;;;;;;1.30;88.38;101977.25;5018165;28;20056;-72
2022/04/11 01:16:46;;;;;;;2.42;1.70;;;;;;;1.22;88.07;101961.97;5000036;28;20034;-72
2022/04/11 01:19:11;;;;;;;2.75;1.60;;;;;;;1.28;87.90;101985.09;5014437;28;20105;-73
2022/04/11 01:21:36;;;;;;;3.95;1.95;;;;;;;1.30;88.24;101977.25;5018017;28;20124;-73
2022/04/11 01:24:02;;;;;;;5.57;1.98;;;;;;;1.23;87.93;101969.69;5014121;28;20072;-73
2022/04/11 01:26:28;;;;;;;4.50;2.67;;;;;;;1.21;88.10;101968.91;5013772;28;20029;-73
2022/04/11 01:28:55;;;;;;;3.28;2.00;;;;;;;1.10;88.59;101965.91;5018799;28;20060;-73
2022/04/11 01:31:21;;;;;;;4.63;2.42;;;;;;;1.13;89.10;101978.78;5016219;28;20042;-73
2022/04/11 01:33:46;;;;;;;5.40;3.20;;;;;;;1.09;88.95;101969.41;5018463;28;20536;-73
2022/04/11 01:36:12;;;;;;;3.53;2.50;;;;;;;1.13;89.42;101976.19;5016456;28;20437;-73
2022/04/11 01:38:37;;;;;;;4.30;2.45;;;;;;;1.13;89.44;101976.19;5018521;28;20124;-73
2022/04/11 01:41:02;;;;;;;4.32;2.33;;;;;;;1.12;89.35;101974.47;5001776;28;20032;-73
2022/04/11 01:43:28;;;;;;;6.63;2.13;;;;;;;1.12;89.90;101979.69;5016958;28;20446;-73
2022/04/11 01:45:54;;;;;;;4.60;2.50;;;;;;;1.11;89.96;101978.00;5015595;28;20100;-73
2022/04/11 01:48:20;;;;;;;4.72;2.47;;;;;;;1.10;89.67;101976.28;5015541;28;20064;-73
2022/04/11 01:50:45;;;;;;;2.17;1.67;;;;;;;0.98;89.29;101962.03;5013510;28;20026;-73
2022/04/11 01:53:13;;;;;;;5.75;1.98;;;;;;;1.10;89.07;101980.66;5018638;28;20571;-73
2022/04/11 01:55:39;;;;;;;3.58;2.10;;;;;;;0.98;88.98;101961.16;5022903;28;20033;-73
2022/04/11 01:58:06;;;;;;;3.22;1.90;;;;;;;1.11;88.98;101977.13;5018773;28;20036;-73
2022/04/11 02:00:34;;;;;;;5.93;1.95;;;;;;;1.09;89.17;101981.53;5018193;28;20036;-73
2022/04/11 02:03:00;;;;;;;5.38;2.38;;;;;;;1.10;89.25;101978.88;5020629;28;20040;-73
2022/04/11 02:05:26;;;;;;;4.03;1.80;;;;;;;1.10;88.75;101975.44;5020693;28;20022;-73
2022/04/11 02:07:52;;;;;;;2.97;1.67;;;;;;;1.01;88.10;101976.66;5023116;28;20037;-73
2022/04/11 02:10:18;;;;;;;2.88;1.58;;;;;;;0.98;87.51;101981.97;5011780;28;20033;-73
2022/04/11 02:12:43;;;;;;;2.75;1.42;;;;;;;0.98;87.65;101979.38;5021406;28;20055;-73
2022/04/11 02:15:10;;;;;;;2.55;1.67;;;;;;;0.99;87.24;101981.06;5021499;28;20062;-73
2022/04/11 02:17:35;;;;;;;6.78;2.42;;;;;;;0.99;86.92;101978.47;5000382;28;20120;-73
2022/04/11 02:20:01;;;;;;;1.67;1.25;;;;;;;0.90;87.31;101971.03;5016441;28;20616;-73
2022/04/11 02:22:26;;;;;;;2.30;1.80;;;;;;;0.98;87.02;101981.97;5017711;28;20364;-73
2022/04/11 02:24:52;;;;;;;2.25;1.75;;;;;;;0.96;86.62;101976.84;5021661;28;20490;-73
2022/04/11 02:27:17;;;;;;;3.67;1.58;;;;;;;0.95;87.10;101976.91;5019844;28;20088;-74
2022/04/11 02:29:42;;;;;;;6.45;1.80;;;;;;;0.86;87.19;101967.72;5000684;28;20054;-73
2022/04/11 02:32:08;;;;;;;2.75;1.50;;;;;;;0.91;87.17;101976.16;5004440;28;20029;-73
2022/04/11 02:34:33;;;;;;;2.35;1.45;;;;;;;0.95;87.23;101979.50;5016716;28;20125;-73
2022/04/11 02:36:59;;;;;;;3.55;1.70;;;;;;;0.94;87.83;101983.03;5022089;28;20113;-73
2022/04/11 02:39:24;;;;;;;2.28;1.55;;;;;;;0.91;87.58;101978.75;5019209;28;20116;-73
2022/04/11 02:41:50;;;;;;;1.52;1.33;;;;;;;0.81;87.69;101965.28;5020811;28;20116;-73
2022/04/11 02:44:15;;;;;;;4.05;1.52;;;;;;;0.71;88.03;101950.13;5018910;28;20509;-73
2022/04/11 02:46:44;;;;;;;4.10;1.55;;;;;;;0.77;87.83;101963.72;4998746;28;20045;-72
2022/04/11 02:49:09;;;;;;;2.72;1.60;;;;;;;0.66;87.91;101936.47;5018682;28;20394;-72
2022/04/11 02:51:35;;;;;;;3.25;1.92;;;;;;;0.70;87.70;101946.69;4989162;28;20030;-72
2022/04/11 02:54:07;;;;;;;2.95;1.67;;;;;;;0.78;87.62;101962.81;5018922;28;20541;-72
2022/04/11 02:56:36;;;;;;;2.65;1.80;;;;;;;0.81;87.70;101972.25;5024053;28;20112;-72
2022/04/11 02:59:02;;;;;;;3.83;1.40;;;;;;;0.78;88.25;101975.81;5017326;28;20112;-72
2022/04/11 03:01:27;;;;;;;2.78;1.58;;;;;;;0.76;88.06;101966.38;5021633;28;20124;-72
2022/04/11 03:03:53;;;;;;;2.90;1.42;;;;;;;0.75;87.73;101970.72;5012984;28;20608;-72
2022/04/11 03:06:18;;;;;;;3.20;1.70;;;;;;;0.76;87.83;101961.16;5018168;28;20057;-73
2022/04/11 03:08:43;;;;;;;3.60;2.00;;;;;;;0.71;87.57;101955.31;5020497;28;20044;-73
2022/04/11 03:11:09;;;;;;;3.42;1.55;;;;;;;0.60;87.84;101937.53;5005240;28;20390;-73
2022/04/11 03:13:34;;;;;;;3.00;1.65;;;;;;;0.73;87.80;101959.53;4996872;28;20026;-73
2022/04/11 03:16:00;;;;;;;3.53;2.13;;;;;;;0.73;88.02;101962.13;5021805;28;20033;-73
2022/04/11 03:18:25;;;;;;;2.50;1.52;;;;;;;0.73;87.87;101959.53;5019877;28;20044;-73
2022/04/11 03:20:50;;;;;;;3.58;1.90;;;;;;;0.63;88.57;101934.81;5017695;28;20400;-73
2022/04/11 03:23:16;;;;;;;4.03;1.83;;;;;;;0.75;88.61;101959.50;5013484;28;20033;-73
2022/04/11 03:25:41;;;;;;;2.58;1.80;;;;;;;0.78;88.64;101960.22;5024462;28;20109;-73
2022/04/11 03:28:07;;;;;;;2.65;1.67;;;;;;;0.80;88.60;101954.94;5020159;28;20034;-73
2022/04/11 03:30:32;;;;;;;2.05;1.58;;;;;;;0.81;88.71;101951.47;5014247;28;20340;-72
2022/04/11 03:32:58;;;;;;;4.05;2.15;;;;;;;0.87;88.44;101952.94;5013870;28;20448;-73
2022/04/11 03:35:23;;;;;;;3.78;1.80;;;;;;;0.90;88.39;101958.06;5022062;28;20559;-73
2022/04/11 03:37:49;;;;;;;3.70;2.28;;;;;;;0.84;88.39;101943.53;5006107;28;20512;-73
2022/04/11 03:40:15;;;;;;;3.30;2.00;;;;;;;0.96;89.08;101960.41;5016305;28;20025;-73
2022/04/11 03:42:40;;;;;;;3.90;2.00;;;;;;;0.88;89.51;101949.47;5025733;28;20044;-73
2022/04/11 03:45:09;;;;;;;3.22;1.73;;;;;;;0.96;90.23;101966.44;5019982;28;20474;-73
2022/04/11 03:47:34;;;;;;;3.25;2.10;;;;;;;0.99;90.57;101966.31;5013084;28;20034;-73
2022/04/11 03:49:59;;;;;;;2.50;1.48;;;;;;;1.05;90.88;101957.44;5013500;28;20037;-73
2022/04/11 03:52:25;;;;;;;4.57;2.38;;;;;;;0.89;91.72;101940.75;5012290;28;20084;-73
2022/04/11 03:54:50;;;;;;;3.35;1.98;;;;;;;0.97;92.26;101949.09;5021342;28;20021;-73
2022/04/11 03:57:16;;;;;;;3.67;1.80;;;;;;;1.13;91.96;101964.91;5020698;28;20045;-74
2022/04/11 03:59:41;;;;;;;2.53;1.67;;;;;;;1.05;91.44;101947.03;5021686;28;20025;-73
2022/04/11 04:02:06;;;;;;;2.50;1.55;;;;;;;1.21;91.01;101958.50;5018551;28;20068;-74
2022/04/11 04:04:32;;;;;;;4.05;1.20;;;;;;;1.16;89.94;101944.84;5016484;28;20036;-73
2022/04/11 04:06:57;;;;;;;3.10;2.08;;;;;;;1.18;89.82;101940.44;4995268;28;20034;-73
2022/04/11 04:09:23;;;;;;;2.33;1.73;;;;;;;1.25;88.83;101950.59;4994576;28;20113;-73
2022/04/11 04:11:48;;;;;;;3.55;1.77;;;;;;;1.35;89.12;101965.75;4994363;28;20063;-73
2022/04/11 04:14:14;;;;;;;2.65;1.77;;;;;;;1.32;89.34;101950.25;4994246;28;20030;-72
2022/04/11 04:16:39;;;;;;;2.92;1.58;;;;;;;1.26;90.74;101953.09;5012694;28;20402;-72
2022/04/11 04:19:04;;;;;;;3.58;2.10;;;;;;;1.27;91.07;101964.38;5011343;28;20418;-72
2022/04/11 04:21:30;;;;;;;5.80;2.20;;;;;;;1.27;92.03;101956.56;5017184;28;20408;-73
2022/04/11 04:23:55;;;;;;;5.30;2.05;;;;;;;1.23;91.93;101948.03;5017146;28;20334;-73
2022/04/11 04:26:21;;;;;;;1.85;1.52;;;;;;;1.25;91.93;101948.00;5014630;28;20482;-73
2022/04/11 04:28:46;;;;;;;7.22;2.22;;;;;;;1.28;92.45;101959.09;5017156;28;20484;-72
2022/04/11 04:31:11;;;;;;;4.95;2.33;;;;;;;1.32;92.79;101954.63;5017988;28;20033;-72
2022/04/11 04:33:37;;;;;;;3.75;1.98;;;;;;;1.34;92.91;101958.84;5012989;28;20056;-72
2022/04/11 04:36:02;;;;;;;6.53;2.10;;;;;;;1.35;92.61;101963.16;5015301;28;20771;-73
2022/04/11 04:38:27;;;;;;;4.13;1.90;;;;;;;1.39;92.61;101961.25;5018798;28;20510;-73
2022/04/11 04:40:53;;;;;;;3.97;1.77;;;;;;;1.27;92.50;101946.19;5018352;28;20466;-73
2022/04/11 04:43:18;;;;;;;3.20;2.28;;;;;;;1.37;92.93;101963.06;5013813;28;20481;-73
2022/04/11 04:45:45;;;;;;;3.80;2.08;;;;;;;1.25;92.45;101937.59;5017067;28;20029;-73
2022/04/11 04:48:11;;;;;;;6.68;1.58;;;;;;;1.29;92.96;101952.16;5013659;28;20040;-73
2022/04/11 04:50:36;;;;;;;6.00;2.08;;;;;;;1.36;93.36;101957.03;5011373;28;20034;-73
2022/04/11 04:53:01;;;;;;;4.20;2.13;;;;;;;1.33;93.04;101944.16;5018392;28;20048;-73
2022/04/11 04:55:27;;;;;;;3.10;2.05;;;;;;;1.36;93.46;101951.84;5014812;28;20464;-73
2022/04/11 04:57:52;;;;;;;3.95;2.53;;;;;;;1.39;93.95;101951.72;5013082;28;20030;-73
2022/04/11 05:00:17;;;;;;;3.85;2.17;;;;;;;1.29;94.19;101932.19;5012071;28;20064;-72
2022/04/11 05:02:43;;;;;;;4.60;2.67;;;;;;;1.43;94.10;101944.63;5006911;28;20034;-72
2022/04/11 05:05:10;;;;;;;2.50;1.58;;;;;;;1.53;94.04;101948.53;5008354;28;20187;-72
2022/04/11 05:07:36;;;;;;;4.65;2.05;;;;;;;1.61;94.06;101958.59;5011283;28;20630;-72
2022/04/11 05:10:04;;;;;;;3.28;2.20;;;;;;;1.58;93.86;101951.78;5012600;28;20038;-73
2022/04/11 05:12:56;;;;;;;4.72;2.00;;;;;;;1.70;94.14;101959.97;4995938;28;20042;-74
2022/04/11 05:15:23;;;;;;;3.08;2.25;;;;;;;1.71;93.86;101951.25;4994351;28;20045;-73
2022/04/11 05:17:48;;;;;;;3.97;2.25;;;;;;;1.68;93.95;101951.38;5000157;28;20056;-73
2022/04/11 05:20:14;;;;;;;2.42;2.10;;;;;;;1.60;93.72;101939.53;5015394;28;20038;-74
2022/04/11 05:22:39;;;;;;;3.45;2.22;;;;;;;1.65;94.08;101952.34;5008574;28;20030;-72
2022/04/11 05:25:05;;;;;;;4.43;2.15;;;;;;;1.60;94.06;101943.91;5010242;28;20033;-72
2022/04/11 05:27:31;;;;;;;5.32;2.55;;;;;;;1.63;94.15;101949.84;5012383;28;20034;-72
2022/04/11 05:29:56;;;;;;;3.63;2.47;;;;;;;1.74;94.24;101961.53;5015021;28;20540;-72
2022/04/11 05:32:22;;;;;;;3.05;2.00;;;;;;;1.80;94.20;101963.88;5013536;28;20448;-72
2022/04/11 05:34:47;;;;;;;2.30;1.50;;;;;;;1.92;94.81;101960.75;5014495;28;20042;-72
2022/04/11 05:37:13;;;;;;;4.20;2.30;;;;;;;2.02;93.79;101951.59;5013210;28;20061;-73
2022/04/11 05:39:39;;;;;;;6.63;2.90;;;;;;;2.10;93.46;101958.25;5011841;28;20033;-72
2022/04/11 05:42:06;;;;;;;3.45;2.28;;;;;;;2.06;93.25;101947.13;5011332;28;20044;-72
2022/04/11 05:44:31;;;;;;;3.17;1.70;;;;;;;2.22;92.94;101952.47;5013782;28;20742;-72
2022/04/11 05:46:57;;;;;;;4.32;2.10;;;;;;;2.30;92.69;101962.56;5018374;28;20038;-73
2022/04/11 05:49:22;;;;;;;4.80;2.40;;;;;;;2.29;92.62;101940.03;5018224;28;20117;-74
2022/04/11 05:51:48;;;;;;;4.20;2.28;;;;;;;2.25;91.94;101936.72;5014262;28;20469;-73
2022/04/11 05:54:14;;;;;;;3.55;1.88;;;;;;;2.37;91.52;101957.00;5018326;28;20032;-73
2022/04/11 05:56:39;;;;;;;3.33;2.47;;;;;;;2.33;90.82;101944.19;5017529;28;20061;-73
2022/04/11 05:59:05;;;;;;;6.78;1.95;;;;;;;2.44;90.79;101962.81;4993370;28;20032;-73
2022/04/11 06:01:31;;;;;;;2.50;1.70;;;;;;;2.43;89.36;101959.34;5015743;28;20036;-73
2022/04/11 06:03:57;;;;;;;5.28;2.10;;;;;;;2.38;89.58;101953.50;5019026;28;20065;-73
2022/04/11 06:06:22;;;;;;;5.30;1.92;;;;;;;2.41;88.95;101960.31;5015995;28;20068;-73
2022/04/11 06:08:48;;;;;;;5.05;2.28;;;;;;;2.41;88.98;101962.94;5029783;28;20068;-73
2022/04/11 06:11:13;;;;;;;7.22;2.58;;;;;;;2.46;89.24;101955.72;5021874;28;20040;-73
2022/04/11 06:13:43;;;;;;;2.63;1.85;;;;;;;2.46;89.31;101960.94;5021119;28;20397;-72
2022/04/11 06:16:08;;;;;;;3.80;2.00;;;;;;;2.44;89.33;101961.03;5027592;28;20410;-72
2022/04/11 06:18:34;;;;;;;9.18;2.33;;;;;;;2.50;88.93;101959.06;5028796;28;20033;-72
2022/04/11 06:20:59;;;;;;;3.83;2.45;;;;;;;2.49;89.59;101941.75;5026348;28;20061;-72
2022/04/11 06:23:25;;;;;;;3.08;1.65;;;;;;;2.59;89.02;101956.88;5013739;28;20030;-72
2022/04/11 06:25:50;;;;;;;3.13;1.75;;;;;;;2.48;88.96;101933.06;5023569;28;20475;-72
2022/04/11 06:28:16;;;;;;;6.80;2.10;;;;;;;2.68;89.47;101964.28;5020249;28;20671;-72
2022/04/11 06:30:41;;;;;;;5.07;1.95;;;;;;;2.75;88.34;101961.38;5017985;28;20032;-72
2022/04/11 06:33:06;;;;;;;4.65;2.10;;;;;;;2.77;87.99;101960.38;5029483;28;20025;-72
2022/04/11 06:35:32;;;;;;;4.47;1.83;;;;;;;2.79;87.75;101948.13;5029032;28;20136;-72
2022/04/11 06:37:57;;;;;;;5.13;1.83;;;;;;;2.90;87.74;101965.88;5005844;28;20069;-72
2022/04/11 06:40:22;;;;;;;5.32;1.77;;;;;;;2.98;86.76;101965.50;5003325;28;20057;-72
2022/04/11 06:42:48;;;;;;;1.98;1.38;;;;;;;3.04;86.36;101962.59;5019684;28;20079;-72
2022/04/11 06:45:14;;;;;;;3.55;1.70;;;;;;;3.13;86.63;101976.94;5024841;28;20442;-72
2022/04/11 06:47:40;;;;;;;5.05;1.63;;;;;;;3.24;86.17;101980.72;5017890;28;20034;-72
2022/04/11 06:50:06;;;;;;;6.13;2.00;;;;;;;3.27;85.33;101974.53;5018369;28;20803;-72
2022/04/11 06:52:31;;;;;;;2.85;1.73;;;;;;;3.25;85.69;101951.13;5026607;28;20044;-72
2022/04/11 06:54:57;;;;;;;5.03;1.92;;;;;;;3.48;85.97;101972.59;5024578;28;20060;-72
2022/04/11 06:57:24;;;;;;;3.83;1.83;;;;;;;3.54;84.66;101979.31;5015966;28;20560;-72
2022/04/11 06:59:50;;;;;;;2.25;1.50;;;;;;;3.61;84.62;101978.06;5022805;28;20026;-72
2022/04/11 07:02:15;;;;;;;5.95;1.48;;;;;;;3.71;84.55;101979.31;5013166;28;20076;-72
2022/04/11 07:04:41;;;;;;;3.00;1.00;;;;;;;3.79;82.33;101984.97;4994478;28;20030;-74
2022/04/11 07:07:06;;;;;;;4.25;1.40;;;;;;;3.80;81.21;101972.75;5008979;28;20440;-73
2022/04/11 07:09:31;;;;;;;5.90;1.60;;;;;;;3.91;80.86;101976.50;5010083;28;20040;-73
2022/04/11 07:11:57;;;;;;;3.67;1.42;;;;;;;3.97;80.76;101984.97;5014695;28;20080;-72
2022/04/11 07:14:23;;;;;;;2.15;1.10;;;;;;;3.99;79.84;101983.13;5018333;28;20416;-72
2022/04/11 07:16:52;;;;;;;3.88;1.30;;;;;;;4.04;80.20;101987.16;4995058;28;20025;-73
2022/04/11 07:19:19;;;;;;;2.75;1.02;;;;;;;4.17;79.99;101981.31;5016963;28;20034;-73
2022/04/11 07:21:46;;;;;;;5.97;1.10;;;;;;;4.17;80.21;101976.91;5013737;28;20419;-73
2022/04/11 07:24:11;;;;;;;3.15;1.42;;;;;;;4.37;80.51;101983.69;4989678;28;20025;-72
2022/04/11 07:26:37;;;;;;;4.28;1.50;;;;;;;4.37;78.59;101988.91;5011260;28;20022;-73
2022/04/11 07:29:02;;;;;;;2.75;1.30;;;;;;;4.48;78.22;101985.75;5023866;28;20080;-73
2022/04/11 07:31:28;;;;;;;3.70;1.60;;;;;;;4.54;77.94;101983.63;5011842;28;20075;-73
2022/04/11 07:33:53;;;;;;;8.05;1.42;;;;;;;4.70;77.87;101986.28;5024924;28;20545;-73
2022/04/11 07:36:19;;;;;;;3.38;1.63;;;;;;;4.82;78.14;101979.53;5023337;28;20336;-72
2022/04/11 07:38:44;;;;;;;2.78;1.33;;;;;;;5.12;77.37;101987.44;5017705;28;20038;-73
2022/04/11 07:41:10;;;;;;;4.28;1.63;;;;;;;5.38;76.67;101989.47;5011571;28;20062;-73
2022/04/11 07:43:35;;;;;;;3.58;2.38;;;;;;;5.60;75.96;101986.50;5025544;28;20021;-73
2022/04/11 07:46:01;;;;;;;1.67;1.20;;;;;;;5.57;74.79;101977.88;5012724;28;20408;-73
2022/04/11 07:48:27;;;;;;;4.03;1.38;;;;;;;5.59;72.68;101980.38;5022759;28;20030;-73
2022/04/11 07:50:52;;;;;;;6.97;1.95;;;;;;;5.76;72.99;101988.09;5021123;28;20061;-73
2022/04/11 07:53:18;;;;;;;7.20;1.13;;;;;;;5.85;72.50;101986.69;5015700;28;20595;-73
2022/04/11 07:55:44;;;;;;;2.42;1.13;;;;;;;6.03;72.29;101995.28;5003684;28;20635;-73
2022/04/11 07:58:09;;;;;;;2.78;1.52;;;;;;;6.26;72.45;101995.66;5016750;28;20048;-73
2022/04/11 08:00:35;;;;;;;3.92;0.85;;;;;;;6.42;71.84;101980.66;5013598;28;20037;-72
2022/04/11 08:03:00;;;;;;;2.33;1.08;;;;;;;6.99;72.10;101998.94;5017375;28;20410;-72
2022/04/11 08:05:26;;;;;;;1.85;0.98;;;;;;;7.52;70.24;102000.78;5018040;28;20033;-72
2022/04/11 08:07:52;;;;;;;3.10;0.95;;;;;;;7.58;68.18;101998.59;5004861;28;20029;-73
2022/04/11 08:10:18;;;;;;;2.38;1.00;;;;;;;7.76;66.74;102004.38;5019053;28;20473;-73
2022/04/11 08:13:10;;;;;;;2.95;1.00;;;;;;;7.98;66.14;101995.06;5025665;28;20025;-73
2022/04/11 08:15:36;;;;;;;3.13;1.15;;;;;;;8.08;66.12;101993.47;5010182;28;20042;-73
2022/04/11 08:18:02;;;;;;;2.50;1.15;;;;;;;8.36;65.34;101989.78;5024197;28;20032;-73
2022/04/11 08:20:28;;;;;;;5.90;1.00;;;;;;;8.19;63.22;101988.31;5012073;28;20068;-73
2022/04/11 08:22:54;;;;;;;3.70;0.90;;;;;;;8.15;64.85;101970.25;5023471;28;20306;-73
2022/04/11 08:25:20;;;;;;;2.25;0.80;;;;;;;8.86;63.76;101989.78;5009321;28;20080;-73
2022/04/11 08:27:46;;;;;;;1.73;0.98;;;;;;;9.55;61.59;101984.69;5022030;28;20017;-73
2022/04/11 08:30:15;;;;;;;2.10;0.95;;;;;;;10.92;60.28;101971.41;5021344;28;20060;-73
2022/04/11 08:32:51;;;;;;;2.35;0.70;;;;;;;11.52;57.88;101979.72;5005165;28;20507;-73
2022/04/11 08:35:20;;;;;;;3.40;0.90;;;;;;;12.48;55.52;101983.00;5014159;28;20491;-73
2022/04/11 08:37:46;;;;;;;2.42;1.10;;;;;;;12.65;53.66;101977.06;5012512;28;20034;-73
2022/04/11 08:40:16;;;;;;;2.40;0.70;;;;;;;12.76;51.31;101974.31;5022475;28;20123;-73
2022/04/11 08:42:43;;;;;;;1.20;0.60;;;;;;;13.50;51.91;101974.75;5019899;28;20069;-73
2022/04/11 08:45:13;;;;;;;2.78;0.80;;;;;;;13.78;50.92;101984.50;5017323;28;20105;-73
2022/04/11 08:47:38;;;;;;;2.03;0.73;;;;;;;14.02;47.76;101985.81;5017674;28;20513;-73
2022/04/11 08:50:06;;;;;;;3.28;1.02;;;;;;;13.79;48.17;101990.63;5015124;28;20493;-73
2022/04/11 08:52:35;;;;;;;4.20;0.88;;;;;;;13.79;49.74;101985.34;5009410;28;20030;-73
2022/04/11 08:55:01;;;;;;;3.42;0.93;;;;;;;14.80;47.95;101980.16;5021866;28;20476;-72
2022/04/11 08:57:27;;;;;;;2.92;0.70;;;;;;;15.56;44.97;101978.84;5012974;28;20028;-74
2022/04/11 08:59:52;;;;;;;3.08;0.80;;;;;;;15.89;44.74;101981.75;5015913;28;20114;-73
2022/04/11 09:02:18;;;;;;;2.20;0.65;;;;;;;15.97;41.14;101990.63;5006951;28;20084;-73
2022/04/11 09:04:50;;;;;;;1.67;0.77;;;;;;;14.70;43.54;101982.03;5007345;28;20030;-73
2022/04/11 09:07:15;;;;;;;1.25;0.52;;;;;;;14.40;44.71;101962.75;5017995;28;20448;-73
2022/04/11 09:09:41;;;;;;;3.08;0.85;;;;;;;14.28;45.04;101978.03;5015812;28;20033;-73
2022/04/11 09:12:11;;;;;;;3.10;0.90;;;;;;;14.30;45.91;101968.09;5016525;28;20470;-73
2022/04/11 09:14:37;;;;;;;1.63;0.55;;;;;;;15.10;42.88;101965.66;5020972;28;20017;-73
2022/04/11 09:17:03;;;;;;;1.98;0.68;;;;;;;16.10;42.15;101981.38;5003662;28;20289;-73
2022/04/11 09:19:29;;;;;;;2.97;0.73;;;;;;;15.44;43.02;101975.59;5019761;28;20038;-73
2022/04/11 09:21:55;;;;;;;4.90;0.80;;;;;;;16.72;43.41;101952.59;5015520;28;20361;-73
2022/04/11 09:24:22;;;;;;;1.75;0.70;;;;;;;17.28;42.29;101977.69;5020994;28;20144;-74
2022/04/11 09:26:51;;;;;;;4.22;0.90;;;;;;;17.11;39.98;101949.34;5018844;28;20087;-73
2022/04/11 09:29:16;;;;;;;4.22;0.70;;;;;;;17.97;39.82;101966.66;5015079;28;20029;-73
2022/04/11 09:31:43;;;;;;;2.65;0.73;;;;;;;17.07;39.00;101958.69;5008484;28;20445;-73
2022/04/11 09:34:20;;;;;;;2.95;0.70;;;;;;;16.23;40.84;101947.16;5011012;28;20273;-74
2022/04/11 09:36:50;;;;;;;4.13;1.27;;;;;;;16.38;43.45;101942.88;5014994;28;20069;-74
2022/04/11 09:39:23;;;;;;;3.22;1.00;;;;;;;17.89;39.32;101953.31;5008150;28;20041;-73
2022/04/11 09:41:49;;;;;;;2.38;0.80;;;;;;;18.01;38.47;101973.31;5018553;28;20057;-74
2022/04/11 09:44:30;;;;;;;1.40;0.52;;;;;;;18.19;38.23;101966.91;5008993;28;20068;-73
2022/04/11 09:47:02;;;;;;;1.60;0.75;;;;;;;16.77;39.61;101966.28;5017837;28;20108;-73
2022/04/11 09:49:27;;;;;;;2.03;0.80;;;;;;;17.63;39.41;101970.34;5018757;28;20117;-74
2022/04/11 09:52:11;;;;;;;2.78;0.90;;;;;;;18.67;40.90;101960.47;5017252;28;20117;-74
2022/04/11 09:54:57;;;;;;;3.42;0.90;;;;;;;17.69;40.10;101959.00;5011127;28;20030;-73
2022/04/11 09:57:26;;;;;;;3.80;0.90;;;;;;;18.38;39.84;101953.13;5013181;28;20021;-73
2022/04/11 09:59:53;;;;;;;2.00;0.55;;;;;;;19.37;35.63;101958.66;5034078;28;20029;-73
2022/04/11 10:02:21;;;;;;;3.05;0.63;;;;;;;18.99;37.56;101947.94;5020653;28;20056;-74
2022/04/11 10:04:48;;;;;;;2.55;0.70;;;;;;;19.77;36.65;101943.22;5017803;28;20083;-74
2022/04/11 10:07:14;;;;;;;3.10;1.23;;;;;;;19.76;36.89;101932.72;5009253;28;20037;-74
2022/04/11 10:09:40;;;;;;;2.67;1.00;;;;;;;18.44;37.62;101923.03;5012395;28;20025;-74
2022/04/11 10:12:06;;;;;;;2.45;0.80;;;;;;;17.66;38.28;101921.97;5019596;28;20076;-74
2022/04/11 10:14:32;;;;;;;3.85;1.00;;;;;;;17.18;38.14;101914.84;4995984;28;20434;-74
2022/04/11 10:17:01;;;;;;;2.58;0.82;;;;;;;18.70;38.00;101932.53;5012324;28;20034;-74
2022/04/11 10:19:31;;;;;;;3.97;0.82;;;;;;;19.36;36.44;101937.41;5018677;28;20474;-73
2022/04/11 10:22:12;;;;;;;;;;;;;;;17.24;38.47;101931.00;5017145;28;20528;-74
2022/04/11 10:24:46;;;;;;;1.45;0.55;;;;;;;18.59;37.44;101919.59;5025407;28;19917;-74
2022/04/11 10:27:14;;;;;;;2.85;0.80;;;;;;;18.23;36.16;101926.31;5021291;28;20033;-74
2022/04/11 10:29:40;;;;;;;2.42;1.08;;;;;;;17.09;39.18;101916.69;5017545;28;20017;-73
2022/04/11 10:32:12;;;;;;;2.53;0.95;;;;;;;19.41;38.79;101924.31;5015795;28;20397;-73
2022/04/11 10:34:48;;;;;;;2.92;0.90;;;;;;;20.04;34.72;101925.66;5020119;28;20041;-73
2022/04/11 10:37:14;;;;;;;2.33;0.63;;;;;;;19.51;36.40;101924.88;5017727;28;20084;-73
2022/04/11 10:39:44;;;;;;;3.33;1.00;;;;;;;18.11;35.76;101926.84;5020498;28;20476;-74
2022/04/11 10:42:14;;;;;;;2.75;0.90;;;;;;;16.55;38.86;101908.25;5018689;28;20041;-75
2022/04/11 10:44:45;;;;;;;3.30;0.90;;;;;;;16.66;39.91;101924.78;5018830;28;20471;-73
2022/04/11 10:47:11;;;;;;;2.22;0.68;;;;;;;15.94;40.67;101921.72;5022077;28;20026;-72
2022/04/11 10:49:48;;;;;;;3.03;0.70;;;;;;;16.50;39.88;101921.25;5012596;28;20041;-72
2022/04/11 10:52:34;;;;;;;3.47;0.80;;;;;;;17.10;37.76;101907.69;5014923;28;20030;-75
2022/04/11 10:55:17;;;;;;;2.58;1.13;;;;;;;17.19;39.11;101911.19;5013811;28;20253;-74
2022/04/11 10:57:46;;;;;;;5.00;1.30;;;;;;;16.83;39.62;101919.50;5014373;28;20167;-74
2022/04/11 11:00:19;;;;;;;2.75;1.05;;;;;;;18.41;37.50;101907.31;5022975;28;20025;-74
2022/04/11 11:02:54;;;;;;;2.60;1.00;;;;;;;19.92;38.79;101909.25;5016116;28;20033;-73
2022/04/11 11:05:32;;;;;;;2.20;0.80;;;;;;;17.17;34.17;101902.53;5015870;28;20108;-73
2022/04/11 11:08:07;;;;;;;2.08;0.88;;;;;;;18.87;37.13;101902.03;5019485;28;20033;-73
2022/04/11 11:10:42;;;;;;;1.85;0.80;;;;;;;19.98;33.96;101904.97;5018882;28;20048;-73
2022/04/11 11:13:39;;;;;;;2.58;0.85;;;;;;;18.79;34.36;101904.78;5015719;28;20554;-73
2022/04/11 11:16:07;;;;;;;2.70;1.23;;;;;;;20.72;35.88;101906.66;5014645;28;20642;-74
2022/04/11 11:18:54;;;;;;;4.38;1.33;;;;;;;19.15;35.61;101904.16;5015590;28;20025;-74
2022/04/11 11:21:28;;;;;;;3.65;1.38;;;;;;;17.95;38.01;101904.56;5019145;28;20109;-74
2022/04/11 11:24:10;;;;;;;4.68;1.23;;;;;;;16.92;39.76;101899.88;5017173;28;20076;-75
2022/04/11 11:26:45;;;;;;;3.45;1.05;;;;;;;19.25;37.47;101894.03;5025607;28;20098;-74
2022/04/11 11:29:15;;;;;;;3.85;1.30;;;;;;;18.82;36.01;101883.03;5015060;28;20387;-74
2022/04/11 11:31:40;;;;;;;3.30;1.30;;;;;;;18.00;39.25;101886.16;5018920;28;20071;-74